Time;durP1;ratioP1;P1;durP2;ratioP2;P2;SDS_P1;SDS_P2;PMS_P1;PMS_P2;Temp;Humidity;BMP_temperature;BMP_pressure;BME280_temperature;BME280_humidity;BME280_pressure;Samples;Min_cycle;Max_cycle;Signal;HPM_P1;HPM_P2
2021/12/16 00:03:38;;;;;;;21.77;9.30;;;;;;;2.23;96.84;97634.13;5115482;28;20405;-33
2021/12/16 00:06:51;;;;;;;23.80;9.10;;;;;;;2.14;96.52;97636.91;5115352;28;20426;-34
2021/12/16 00:09:23;;;;;;;20.30;9.90;;;;;;;2.16;96.83;97627.91;5114840;28;20449;-33
2021/12/16 00:31:33;;;;;;;10.53;7.10;;;;;;;2.14;96.23;97636.91;5115029;28;20405;-34
2021/12/16 00:34:04;;;;;;;13.93;8.00;;;;;;;2.11;95.51;97621.50;5114781;28;20821;-35
2021/12/16 00:36:34;;;;;;;21.07;8.40;;;;;;;2.12;95.39;97625.78;5114846;28;20435;-35
2021/12/16 00:39:02;;;;;;;23.07;9.03;;;;;;;2.15;94.86;97636.78;5114818;28;20443;-35
2021/12/16 00:41:29;;;;;;;25.33;10.50;;;;;;;2.15;94.36;97626.28;5114468;28;20446;-35
2021/12/16 00:44:05;;;;;;;18.67;8.20;;;;;;;2.09;94.53;97626.09;5114361;28;20442;-36
2021/12/16 00:46:56;;;;;;;12.60;8.07;;;;;;;2.08;94.67;97621.84;5114373;28;20462;-34
2021/12/16 00:49:33;;;;;;;16.93;7.07;;;;;;;2.08;94.98;97622.66;5113730;28;20530;-37
2021/12/16 00:54:55;;;;;;;16.40;9.30;;;;;;;2.09;93.61;97618.22;5114374;28;20782;-34
2021/12/16 00:57:23;;;;;;;14.80;8.37;;;;;;;2.10;94.02;97617.28;5114210;28;20426;-36
2021/12/16 00:59:53;;;;;;;12.10;8.17;;;;;;;1.90;93.72;97595.81;5114450;28;20444;-36
2021/12/16 01:02:41;;;;;;;20.73;8.47;;;;;;;2.09;93.18;97618.22;5114091;28;20465;-35
2021/12/16 01:05:53;;;;;;;17.27;8.70;;;;;;;2.04;93.49;97624.81;5114349;28;20445;-36
2021/12/16 01:08:42;;;;;;;20.00;10.10;;;;;;;2.03;93.76;97623.16;5114286;28;20517;-36
2021/12/16 01:36:25;;;;;;;25.00;10.43;;;;;;;1.99;92.99;97627.06;5103179;28;20434;-34
2021/12/16 01:39:43;;;;;;;14.40;8.53;;;;;;;2.00;93.18;97620.88;5114007;28;20840;-35
2021/12/16 01:42:26;;;;;;;10.43;6.00;;;;;;;2.01;92.81;97609.41;5113549;28;20438;-34
2021/12/16 01:47:51;;;;;;;17.93;7.90;;;;;;;2.01;91.93;97608.59;5114041;28;20546;-36
2021/12/16 01:50:26;;;;;;;21.97;9.27;;;;;;;2.02;91.66;97618.06;5113649;28;20458;-36
2021/12/16 01:53:15;;;;;;;19.70;10.83;;;;;;;2.02;91.41;97611.03;5113510;28;21041;-35
2021/12/16 01:55:50;;;;;;;20.23;11.17;;;;;;;2.05;91.63;97608.09;5113919;28;20801;-34
2021/12/16 01:58:21;;;;;;;17.73;10.17;;;;;;;2.05;91.98;97615.94;5113498;28;21039;-34
2021/12/16 02:01:01;;;;;;;24.50;11.90;;;;;;;2.09;92.16;97610.38;5114864;28;20462;-36
2021/12/16 02:03:41;;;;;;;17.63;9.63;;;;;;;2.10;92.51;97607.59;5117507;28;20927;-34
2021/12/16 02:06:27;;;;;;;21.80;10.37;;;;;;;2.10;92.84;97606.78;5117441;27;20909;-34
2021/12/16 02:08:57;;;;;;;22.93;10.90;;;;;;;2.08;93.76;97606.13;5117436;28;20430;-35
2021/12/16 02:11:44;;;;;;;23.57;11.37;;;;;;;2.08;94.37;97599.09;5117320;28;20445;-34
2021/12/16 02:28:14;;;;;;;12.60;6.90;;;;;;;1.95;90.99;97602.19;5116936;28;20770;-34
2021/12/16 02:33:53;;;;;;;17.03;6.67;;;;;;;1.92;90.74;97591.22;5116829;28;20473;-34
2021/12/16 02:36:27;;;;;;;15.83;7.07;;;;;;;1.89;90.60;97599.38;5116907;28;20487;-36
2021/12/16 02:38:59;;;;;;;15.47;7.00;;;;;;;1.78;90.87;97582.19;5116805;28;20970;-36
2021/12/16 02:41:28;;;;;;;14.50;6.87;;;;;;;1.92;91.13;97610.38;5117668;28;20438;-34
2021/12/16 02:44:13;;;;;;;12.43;6.10;;;;;;;1.89;91.12;97602.81;5116683;28;20433;-36
2021/12/16 02:49:28;;;;;;;15.77;6.93;;;;;;;1.87;91.73;97604.78;5117040;28;20397;-35
2021/12/16 02:51:57;;;;;;;9.67;5.37;;;;;;;1.70;91.91;97584.78;5116548;28;20441;-36
2021/12/16 02:54:26;;;;;;;17.10;9.43;;;;;;;1.84;91.89;97612.97;5116379;28;20489;-34
2021/12/16 02:56:54;;;;;;;10.80;5.83;;;;;;;1.85;92.25;97609.38;5116720;28;20438;-35
2021/12/16 02:59:26;;;;;;;14.40;7.30;;;;;;;1.87;92.02;97611.81;5116407;28;20439;-35
2021/12/16 03:01:56;;;;;;;15.17;8.47;;;;;;;1.87;92.27;97607.41;5116403;28;20465;-36
2021/12/16 03:04:29;;;;;;;15.97;9.57;;;;;;;1.82;92.05;97596.59;5116300;28;20433;-34
2021/12/16 03:06:59;;;;;;;16.63;7.67;;;;;;;1.88;92.18;97603.81;5116645;28;20838;-34
2021/12/16 03:12:35;;;;;;;20.60;8.70;;;;;;;1.88;93.10;97616.91;5081988;28;20519;-35
2021/12/16 03:15:12;;;;;;;22.50;9.03;;;;;;;1.92;93.36;97601.69;5116113;28;20809;-34
2021/12/16 03:17:47;;;;;;;17.13;8.63;;;;;;;1.91;93.27;97613.16;5116410;28;20453;-35
2021/12/16 03:20:26;;;;;;;11.40;7.17;;;;;;;1.90;93.49;97614.94;5116295;28;20430;-35
2021/12/16 03:23:04;;;;;;;20.23;9.70;;;;;;;1.91;92.87;97613.94;5116779;28;20437;-36
2021/12/16 03:25:46;;;;;;;22.50;10.70;;;;;;;1.90;92.64;97611.53;5115844;28;20434;-35
2021/12/16 03:28:35;;;;;;;11.77;8.00;;;;;;;1.88;92.20;97618.72;5115595;28;20517;-36
2021/12/16 03:31:22;;;;;;;23.03;7.80;;;;;;;1.81;91.89;97608.88;5115803;28;20442;-34
2021/12/16 03:34:07;;;;;;;14.70;7.87;;;;;;;1.79;91.38;97617.88;5115975;28;20835;-34
2021/12/16 03:36:48;;;;;;;20.70;8.53;;;;;;;1.80;92.10;97616.88;5115673;28;20438;-36
2021/12/16 03:39:17;;;;;;;23.60;10.80;;;;;;;1.75;92.27;97627.03;5115670;28;20435;-34
2021/12/16 03:41:46;;;;;;;17.77;9.30;;;;;;;1.75;91.92;97630.47;5115841;28;20474;-34
2021/12/16 03:44:17;;;;;;;22.60;11.03;;;;;;;1.73;91.99;97634.22;5115426;28;20446;-35
2021/12/16 03:46:50;;;;;;;23.20;11.20;;;;;;;1.67;92.15;97637.47;5115779;28;20476;-35
2021/12/16 03:49:21;;;;;;;19.37;10.93;;;;;;;1.73;92.66;97647.31;5115504;27;20782;-35
2021/12/16 03:51:52;;;;;;;24.00;12.07;;;;;;;1.74;92.97;97643.72;5115442;28;20431;-34
2021/12/16 03:54:22;;;;;;;25.07;12.20;;;;;;;1.74;93.17;97639.31;5116146;28;20488;-36
2021/12/16 03:56:52;;;;;;;13.17;8.63;;;;;;;1.75;93.19;97642.75;5115854;28;20446;-36
2021/12/16 03:59:22;;;;;;;18.27;9.57;;;;;;;1.74;93.20;97647.16;5115678;28;20442;-34
2021/12/16 04:01:49;;;;;;;20.93;9.17;;;;;;;1.72;93.03;97648.28;5115492;28;20446;-34
2021/12/16 04:04:17;;;;;;;27.20;12.87;;;;;;;1.70;92.57;97638.00;5115402;28;20441;-35
2021/12/16 04:06:44;;;;;;;53.33;18.13;;;;;;;1.71;92.54;97644.84;5115419;28;20448;-34
2021/12/16 04:09:14;;;;;;;27.73;13.13;;;;;;;1.70;92.42;97637.16;5115046;28;20434;-35
2021/12/16 04:11:47;;;;;;;18.23;9.17;;;;;;;1.70;92.49;97651.09;5115031;28;20433;-34
2021/12/16 04:14:16;;;;;;;14.70;7.70;;;;;;;1.57;92.43;97621.91;5114884;28;20481;-34
2021/12/16 04:16:48;;;;;;;12.93;7.23;;;;;;;1.68;92.46;97654.81;5115729;28;20449;-35
2021/12/16 04:19:20;;;;;;;18.50;7.70;;;;;;;1.45;92.20;97618.75;5114770;28;21008;-35
2021/12/16 04:21:51;;;;;;;14.07;7.50;;;;;;;1.60;92.26;97643.34;5114874;28;20901;-35
2021/12/16 04:24:19;;;;;;;21.20;8.60;;;;;;;1.44;92.51;97622.34;5114084;28;20426;-35
2021/12/16 04:26:48;;;;;;;21.13;10.50;;;;;;;1.56;92.73;97644.63;5115015;28;20445;-36
2021/12/16 04:29:18;;;;;;;18.93;9.77;;;;;;;1.49;93.00;97643.63;5114452;28;20968;-33
2021/12/16 04:31:46;;;;;;;19.90;9.47;;;;;;;1.42;93.14;97643.44;5114932;28;20446;-34
2021/12/16 04:34:14;;;;;;;12.37;8.80;;;;;;;1.41;93.39;97638.38;5114505;28;21023;-34
2021/12/16 04:36:42;;;;;;;29.23;11.83;;;;;;;1.39;93.54;97641.13;5114361;28;20434;-34
2021/12/16 04:39:13;;;;;;;12.67;8.07;;;;;;;1.30;92.98;97636.03;5114776;28;20449;-36
2021/12/16 04:41:42;;;;;;;21.20;11.20;;;;;;;1.28;92.54;97635.38;5114408;28;20914;-34
2021/12/16 04:44:11;;;;;;;17.70;8.50;;;;;;;1.21;91.64;97633.38;5114394;28;20445;-36
2021/12/16 04:46:40;;;;;;;24.37;12.30;;;;;;;1.16;91.84;97632.19;5115496;28;20791;-36
2021/12/16 04:49:10;;;;;;;22.80;10.93;;;;;;;1.07;91.83;97630.53;5114677;28;20438;-35
2021/12/16 04:51:41;;;;;;;30.73;12.23;;;;;;;1.08;91.93;97638.22;5114196;28;20440;-36
2021/12/16 04:54:10;;;;;;;28.80;12.57;;;;;;;1.05;91.73;97628.06;5115386;28;20469;-35
2021/12/16 04:56:39;;;;;;;22.57;10.57;;;;;;;0.98;91.72;97637.50;5114518;28;20442;-35
2021/12/16 04:59:09;;;;;;;25.50;15.57;;;;;;;1.00;91.88;97643.41;5114125;28;20442;-37
2021/12/16 05:01:36;;;;;;;21.90;9.30;;;;;;;0.89;92.13;97634.03;5114183;28;20442;-34
2021/12/16 05:04:06;;;;;;;22.23;11.13;;;;;;;0.96;92.47;97640.28;5114049;28;20933;-35
2021/12/16 05:06:34;;;;;;;25.93;11.13;;;;;;;0.92;92.35;97644.16;5114453;28;20434;-36
2021/12/16 05:09:02;;;;;;;16.30;10.27;;;;;;;0.91;92.54;97646.97;5114136;27;20434;-36
2021/12/16 05:11:30;;;;;;;35.00;12.83;;;;;;;0.88;93.16;97642.03;5114334;28;20444;-36
2021/12/16 05:13:58;;;;;;;25.40;11.07;;;;;;;0.92;93.58;97640.75;5114310;28;20508;-35
2021/12/16 05:16:25;;;;;;;20.20;10.63;;;;;;;0.90;93.30;97643.50;5113874;28;20521;-35
2021/12/16 05:18:55;;;;;;;23.17;10.67;;;;;;;0.87;93.13;97635.16;5113882;28;20438;-34
2021/12/16 05:21:44;;;;;;;22.57;10.87;;;;;;;0.89;93.28;97630.59;5113786;28;20442;-36
2021/12/16 05:24:17;;;;;;;17.03;9.03;;;;;;;0.83;93.13;97634.63;5113944;28;20426;-36
2021/12/16 05:26:44;;;;;;;17.20;7.97;;;;;;;0.84;93.18;97625.00;5113842;28;20523;-36
2021/12/16 05:29:12;;;;;;;16.60;8.03;;;;;;;0.77;93.48;97630.03;5113556;28;20476;-35
2021/12/16 05:31:41;;;;;;;25.47;10.50;;;;;;;0.73;93.78;97634.75;5113705;28;20533;-36
2021/12/16 05:34:09;;;;;;;16.37;9.40;;;;;;;0.72;94.13;97632.28;5114001;28;20512;-36
2021/12/16 05:36:39;;;;;;;20.20;9.60;;;;;;;0.72;94.04;97633.09;5117994;28;20438;-36
2021/12/16 05:39:08;;;;;;;17.27;8.97;;;;;;;0.72;93.94;97643.56;5114984;28;20494;-38
2021/12/16 05:41:35;;;;;;;15.27;8.30;;;;;;;0.60;94.14;97613.41;5115869;28;20450;-34
2021/12/16 05:44:02;;;;;;;19.87;8.97;;;;;;;0.58;94.34;97613.59;5115836;28;20446;-35
2021/12/16 05:46:30;;;;;;;24.47;11.03;;;;;;;0.76;94.75;97634.44;5115762;28;20816;-38
2021/12/16 05:49:00;;;;;;;20.63;9.40;;;;;;;0.77;94.29;97623.00;5115626;28;20434;-37
2021/12/16 05:51:31;;;;;;;31.40;14.90;;;;;;;0.77;94.38;97625.59;5115329;28;20814;-35
2021/12/16 05:54:01;;;;;;;21.53;12.70;;;;;;;0.75;94.80;97622.34;5115601;28;20466;-37
2021/12/16 05:56:29;;;;;;;77.30;39.27;;;;;;;0.72;95.13;97617.41;5115965;27;20445;-37
2021/12/16 05:58:57;;;;;;;25.50;10.67;;;;;;;0.72;95.01;97609.56;5115499;28;20533;-36
2021/12/16 06:01:28;;;;;;;23.57;11.37;;;;;;;0.77;94.75;97623.00;5115808;28;20449;-37
2021/12/16 06:03:56;;;;;;;23.13;11.40;;;;;;;0.77;94.92;97612.53;5115025;28;20819;-37
2021/12/16 06:06:24;;;;;;;19.23;8.87;;;;;;;0.79;94.72;97607.97;5115707;28;20537;-37
2021/12/16 06:08:53;;;;;;;23.93;9.53;;;;;;;0.79;94.30;97626.28;5115374;28;20438;-36
2021/12/16 06:11:26;;;;;;;33.93;12.43;;;;;;;0.77;95.32;97620.38;5115233;28;20940;-37
2021/12/16 06:14:04;;;;;;;12.33;7.43;;;;;;;0.79;95.19;97610.59;5115549;28;20477;-37
2021/12/16 06:27:34;;;;;;;18.43;10.77;;;;;;;0.81;95.81;97618.28;5115320;28;20762;-38
2021/12/16 06:30:02;;;;;;;29.83;10.30;;;;;;;0.80;95.92;97620.09;5114383;28;20485;-37
2021/12/16 06:32:29;;;;;;;23.17;11.50;;;;;;;0.81;96.28;97621.72;5114868;28;20521;-37
2021/12/16 06:34:57;;;;;;;18.53;9.40;;;;;;;0.87;96.10;97622.09;5114819;28;20485;-36
2021/12/16 06:37:25;;;;;;;21.80;9.73;;;;;;;0.87;95.92;97624.72;5114758;28;20441;-38
2021/12/16 06:39:52;;;;;;;25.20;9.80;;;;;;;0.84;96.08;97625.84;5114754;28;20445;-39
2021/12/16 06:42:20;;;;;;;30.20;11.10;;;;;;;0.85;96.15;97617.00;5114991;28;20441;-37
2021/12/16 06:44:53;;;;;;;21.60;8.90;;;;;;;0.88;95.93;97615.88;5114580;28;20533;-38
2021/12/16 06:47:25;;;;;;;18.10;8.97;;;;;;;0.87;96.32;97616.88;5114105;28;20588;-37
2021/12/16 06:49:54;;;;;;;22.40;9.00;;;;;;;0.89;96.38;97612.28;5114582;28;20437;-37
2021/12/16 06:52:29;;;;;;;22.20;10.87;;;;;;;0.85;96.27;97616.19;5114481;28;20446;-37
2021/12/16 06:55:09;;;;;;;30.10;13.97;;;;;;;0.91;95.63;97626.03;5114383;28;20538;-39
2021/12/16 06:57:42;;;;;;;15.33;7.87;;;;;;;0.88;95.88;97629.75;5113961;28;20426;-37
2021/12/16 07:00:20;;;;;;;25.80;9.93;;;;;;;0.87;96.00;97622.09;5114316;28;20426;-37
2021/12/16 07:03:01;;;;;;;29.80;12.50;;;;;;;0.89;96.19;97623.56;5114433;27;20429;-36
2021/12/16 07:05:31;;;;;;;35.60;16.53;;;;;;;0.90;95.72;97627.81;5114316;28;20441;-37
2021/12/16 07:08:00;;;;;;;28.83;14.00;;;;;;;0.94;95.88;97631.75;5114578;28;20450;-36
2021/12/16 07:10:29;;;;;;;21.07;11.30;;;;;;;0.96;95.29;97631.63;5116168;28;20449;-37
2021/12/16 07:13:00;;;;;;;50.77;21.77;;;;;;;0.94;95.32;97629.16;5116134;28;20930;-37
2021/12/16 07:15:31;;;;;;;38.90;16.93;;;;;;;0.94;95.75;97637.00;5116418;28;20478;-37
2021/12/16 07:17:59;;;;;;;33.27;15.83;;;;;;;0.93;95.75;97634.56;5116442;27;20460;-37
2021/12/16 07:20:28;;;;;;;23.17;11.77;;;;;;;0.97;95.62;97631.47;5116321;28;20442;-37
2021/12/16 07:22:57;;;;;;;25.33;13.40;;;;;;;0.82;95.34;97633.00;5115977;27;20442;-36
2021/12/16 07:25:24;;;;;;;25.20;13.90;;;;;;;0.98;95.59;97648.78;5115951;28;20449;-37
2021/12/16 07:27:51;;;;;;;21.83;11.90;;;;;;;1.05;94.96;97648.97;5115747;28;20918;-37
2021/12/16 07:30:22;;;;;;;20.47;11.90;;;;;;;1.06;94.60;97661.09;5116202;28;20419;-37
2021/12/16 07:32:52;;;;;;;20.57;9.67;;;;;;;1.07;94.31;97652.25;5116180;28;20484;-36
2021/12/16 07:35:23;;;;;;;23.50;11.67;;;;;;;1.08;94.29;97653.91;5115662;28;20493;-37
2021/12/16 07:37:51;;;;;;;25.10;12.10;;;;;;;1.01;94.11;97647.66;5115765;28;20429;-34
2021/12/16 07:40:22;;;;;;;21.60;11.07;;;;;;;1.08;94.43;97651.31;5115680;28;20441;-37
2021/12/16 07:43:10;;;;;;;21.93;8.63;;;;;;;1.07;94.42;97644.41;5115958;28;20426;-36
2021/12/16 07:45:45;;;;;;;19.77;10.00;;;;;;;1.15;94.22;97649.69;5115758;28;20518;-35
2021/12/16 07:48:16;;;;;;;24.33;11.70;;;;;;;1.01;93.82;97618.88;5115575;28;20426;-34
2021/12/16 07:50:47;;;;;;;32.13;10.17;;;;;;;1.23;94.13;97647.13;5115751;28;20422;-36
2021/12/16 07:53:14;;;;;;;28.87;13.33;;;;;;;1.19;93.61;97645.78;5116362;28;20426;-36
2021/12/16 07:55:42;;;;;;;21.40;10.50;;;;;;;1.22;93.40;97645.47;5115329;28;20482;-37
2021/12/16 07:58:12;;;;;;;23.20;10.60;;;;;;;1.19;93.55;97630.09;5114552;28;20461;-36
2021/12/16 08:00:39;;;;;;;19.30;10.40;;;;;;;1.22;92.81;97628.97;5115556;28;20446;-37
2021/12/16 08:03:12;;;;;;;32.07;12.20;;;;;;;1.41;92.82;97661.91;5115177;28;20442;-36
2021/12/16 08:05:46;;;;;;;18.47;9.50;;;;;;;1.39;92.96;97661.25;5115167;28;20442;-35
2021/12/16 08:08:14;;;;;;;20.33;11.10;;;;;;;1.45;93.09;97655.41;5115450;28;20429;-37
2021/12/16 08:10:42;;;;;;;18.33;9.77;;;;;;;1.48;92.98;97651.63;5116098;28;20445;-35
2021/12/16 08:13:10;;;;;;;17.27;9.50;;;;;;;1.51;92.81;97643.50;5115021;28;20447;-36
2021/12/16 08:15:37;;;;;;;29.63;13.30;;;;;;;1.48;92.59;97649.03;5114868;28;20497;-36
2021/12/16 08:18:05;;;;;;;33.80;14.03;;;;;;;1.42;93.11;97651.31;5114917;28;20449;-36
2021/12/16 08:20:32;;;;;;;27.20;10.90;;;;;;;1.39;93.36;97640.31;5114828;28;20449;-36
2021/12/16 08:23:01;;;;;;;22.33;10.13;;;;;;;1.43;92.77;97641.66;5112814;28;20448;-35
2021/12/16 08:25:32;;;;;;;20.57;9.00;;;;;;;1.41;92.77;97646.22;5112952;28;20449;-36
2021/12/16 08:28:03;;;;;;;29.87;11.87;;;;;;;1.37;93.36;97642.28;5112408;28;20431;-37
2021/12/16 08:30:32;;;;;;;24.67;13.37;;;;;;;1.34;93.63;97647.84;5112646;28;20419;-36
2021/12/16 08:33:04;;;;;;;29.80;12.37;;;;;;;1.30;93.93;97642.09;5112571;28;20446;-37
2021/12/16 08:35:32;;;;;;;20.20;9.97;;;;;;;1.39;93.88;97648.97;5112281;28;20884;-37
2021/12/16 08:38:01;;;;;;;33.07;11.87;;;;;;;1.34;93.93;97640.78;5112484;28;20451;-37
2021/12/16 08:40:29;;;;;;;25.03;10.33;;;;;;;1.29;94.00;97637.00;5112393;28;20446;-37
2021/12/16 08:42:57;;;;;;;20.13;10.53;;;;;;;1.35;93.77;97639.00;5112335;28;20533;-37
2021/12/16 08:45:28;;;;;;;23.30;10.37;;;;;;;1.45;93.94;97655.41;5112369;28;20464;-37
2021/12/16 08:47:57;;;;;;;48.90;21.50;;;;;;;1.32;93.65;97639.31;5112106;28;20478;-37
2021/12/16 08:50:27;;;;;;;24.63;12.97;;;;;;;1.46;93.39;97646.56;5112589;28;20456;-36
2021/12/16 08:52:55;;;;;;;21.23;11.37;;;;;;;1.48;93.46;97649.03;5112168;28;20448;-36
2021/12/16 08:55:24;;;;;;;29.20;14.20;;;;;;;1.50;92.81;97650.50;5112070;28;20522;-37
2021/12/16 08:57:53;;;;;;;26.13;11.83;;;;;;;1.56;92.98;97657.72;5112122;28;20446;-37
2021/12/16 09:00:24;;;;;;;25.27;13.30;;;;;;;1.56;93.04;97649.88;5112126;28;20446;-36
2021/12/16 09:02:52;;;;;;;32.47;13.70;;;;;;;1.64;92.61;97643.84;5111685;28;20436;-36
2021/12/16 09:05:20;;;;;;;27.47;13.60;;;;;;;1.66;92.57;97639.28;5112188;28;20909;-37
2021/12/16 09:07:48;;;;;;;18.13;10.77;;;;;;;1.72;91.74;97635.19;5111991;28;20462;-37
2021/12/16 09:10:21;;;;;;;27.33;14.17;;;;;;;1.77;91.87;97632.94;5111580;28;20470;-37
2021/12/16 09:13:00;;;;;;;35.83;17.37;;;;;;;1.79;91.56;97625.75;5112038;28;20473;-37
2021/12/16 09:15:29;;;;;;;40.10;18.27;;;;;;;1.81;91.65;97621.16;5111832;28;20469;-37
2021/12/16 09:17:56;;;;;;;57.60;22.03;;;;;;;1.89;91.38;97625.56;5111738;28;20449;-37
2021/12/16 09:20:24;;;;;;;42.83;17.60;;;;;;;1.86;90.86;97607.59;5111781;28;20801;-37
2021/12/16 09:22:52;;;;;;;39.00;17.77;;;;;;;1.89;90.95;97615.09;5111834;28;20453;-37
2021/12/16 09:25:19;;;;;;;34.57;15.40;;;;;;;1.89;90.64;97605.44;5111786;28;20449;-37
2021/12/16 09:27:47;;;;;;;34.87;17.70;;;;;;;1.76;90.35;97586.75;5111493;28;20994;-35
2021/12/16 09:30:19;;;;;;;27.27;11.23;;;;;;;1.95;90.26;97601.38;5111766;28;20920;-37
2021/12/16 09:32:48;;;;;;;24.97;14.23;;;;;;;2.02;90.36;97600.56;5111965;28;20453;-37
2021/12/16 09:35:16;;;;;;;24.17;12.93;;;;;;;2.08;89.89;97593.84;5111687;28;20502;-37
2021/12/16 09:37:44;;;;;;;30.73;11.70;;;;;;;2.14;89.63;97598.44;5111644;28;20438;-38
2021/12/16 09:40:15;;;;;;;27.20;12.90;;;;;;;2.16;89.17;97590.41;5111504;28;20945;-37
2021/12/16 09:42:43;;;;;;;31.87;16.10;;;;;;;2.19;89.17;97600.56;5111938;28;20438;-37
2021/12/16 09:45:12;;;;;;;30.93;16.03;;;;;;;2.22;89.08;97597.63;5111476;28;20457;-37
2021/12/16 09:47:43;;;;;;;28.60;12.53;;;;;;;2.20;88.92;97596.97;5111517;28;20450;-37
2021/12/16 09:50:14;;;;;;;23.87;10.83;;;;;;;2.24;88.80;97600.91;5111617;28;20429;-35
2021/12/16 09:52:41;;;;;;;32.70;17.53;;;;;;;2.19;88.18;97597.94;5112096;28;20447;-35
2021/12/16 09:55:10;;;;;;;24.07;11.90;;;;;;;2.21;88.58;97594.16;5111192;28;20485;-37
2021/12/16 09:57:38;;;;;;;55.50;21.87;;;;;;;2.12;88.56;97607.44;5111407;28;20434;-38
2021/12/16 10:00:07;;;;;;;27.27;13.57;;;;;;;2.20;88.86;97602.22;5111797;28;20446;-37
2021/12/16 10:02:34;;;;;;;30.93;14.77;;;;;;;2.22;89.04;97608.13;5111754;28;20448;-36
2021/12/16 10:05:05;;;;;;;32.40;14.87;;;;;;;2.23;89.14;97604.50;5111367;28;20507;-37
2021/12/16 10:07:34;;;;;;;31.50;14.90;;;;;;;2.24;88.72;97603.53;5111129;28;20431;-37
2021/12/16 10:10:05;;;;;;;27.10;13.00;;;;;;;2.28;88.15;97599.59;5111259;28;20449;-37
2021/12/16 10:12:37;;;;;;;24.27;10.80;;;;;;;2.29;88.93;97601.22;5111718;28;20453;-36
2021/12/16 10:17:22;;;;;;;20.17;9.63;;;;;;;2.32;89.27;97590.41;5111267;28;20472;-37
2021/12/16 10:17:56;;;;;;;28.87;11.47;;;;;;;2.35;89.08;97584.84;5111340;28;20828;-37
2021/12/16 10:20:33;;;;;;;21.53;11.47;;;;;;;2.36;88.92;97581.22;5111096;28;20521;-37
2021/12/16 10:23:08;;;;;;;18.93;9.60;;;;;;;2.36;89.02;97576.00;5114154;28;20433;-37
2021/12/16 10:25:40;;;;;;;22.50;10.73;;;;;;;2.39;89.10;97580.91;5115343;28;20424;-37
2021/12/16 10:28:13;;;;;;;16.90;10.27;;;;;;;2.41;89.25;97580.72;5115134;28;20552;-37
2021/12/16 10:30:49;;;;;;;17.53;10.30;;;;;;;2.43;88.54;97584.00;5115357;28;20430;-37
2021/12/16 10:33:22;;;;;;;35.53;13.70;;;;;;;2.34;88.82;97583.19;5114670;28;20429;-37
2021/12/16 10:35:58;;;;;;;32.97;13.30;;;;;;;2.24;89.02;97553.75;5114710;28;20843;-37
2021/12/16 10:38:25;;;;;;;44.03;22.90;;;;;;;2.42;89.75;97585.81;5115113;27;20434;-37
2021/12/16 10:40:56;;;;;;;24.10;11.93;;;;;;;2.39;89.29;97583.53;5114796;28;20491;-37
2021/12/16 10:43:33;;;;;;;32.90;14.73;;;;;;;2.41;89.53;97589.44;5115034;28;20448;-37
2021/12/16 10:46:04;;;;;;;25.83;11.70;;;;;;;2.42;89.94;97570.09;5114399;28;20453;-37
2021/12/16 10:48:33;;;;;;;19.87;11.50;;;;;;;2.42;90.09;97577.94;5114974;28;20430;-36
2021/12/16 10:51:19;;;;;;;19.90;9.97;;;;;;;2.51;90.29;97567.47;5114802;28;20458;-37
2021/12/16 10:54:13;;;;;;;24.53;10.37;;;;;;;2.58;90.46;97564.03;5114536;28;20457;-37
2021/12/16 10:56:45;;;;;;;14.97;10.00;;;;;;;2.66;90.08;97566.59;5114770;28;20583;-36
2021/12/16 10:59:16;;;;;;;25.33;11.83;;;;;;;2.75;89.63;97564.78;5114449;28;20441;-37
2021/12/16 11:01:51;;;;;;;17.47;10.17;;;;;;;2.82;89.92;97575.44;5114769;28;20426;-37
2021/12/16 11:04:25;;;;;;;21.83;11.00;;;;;;;2.81;88.99;97574.59;5114364;28;20434;-36
2021/12/16 11:06:57;;;;;;;37.60;16.00;;;;;;;2.77;89.69;97568.06;5113422;28;20433;-37
2021/12/16 11:09:29;;;;;;;38.67;17.40;;;;;;;2.75;89.06;97570.03;5113377;28;20488;-38
2021/12/16 11:12:09;;;;;;;25.00;11.27;;;;;;;2.72;88.99;97565.13;5113643;28;20427;-37
2021/12/16 11:14:38;;;;;;;23.70;12.43;;;;;;;2.75;88.56;97566.59;5114476;28;20820;-37
2021/12/16 11:17:08;;;;;;;27.43;14.30;;;;;;;2.74;88.82;97563.16;5114273;28;20490;-38
2021/12/16 11:19:49;;;;;;;21.90;10.70;;;;;;;2.76;89.09;97563.81;5114092;28;20456;-37
2021/12/16 11:22:20;;;;;;;17.20;9.40;;;;;;;2.77;89.00;97568.06;5113970;28;20438;-37
2021/12/16 11:24:48;;;;;;;26.37;12.60;;;;;;;2.76;89.06;97561.19;5113655;28;20438;-38
2021/12/16 11:27:36;;;;;;;25.33;11.17;;;;;;;2.81;89.19;97569.34;5113958;28;20460;-37
2021/12/16 11:30:23;;;;;;;30.50;15.03;;;;;;;2.86;89.88;97561.81;5109116;28;20473;-37
2021/12/16 11:32:54;;;;;;;25.30;12.73;;;;;;;2.96;89.57;97563.44;5113692;28;20434;-38
2021/12/16 11:35:34;;;;;;;23.73;14.10;;;;;;;3.01;89.20;97563.72;5114033;27;20488;-37
2021/12/16 11:38:09;;;;;;;28.37;12.00;;;;;;;3.05;88.55;97559.78;5113451;28;20430;-37
2021/12/16 11:41:02;;;;;;;32.63;16.00;;;;;;;3.04;88.36;97558.16;5113899;28;20437;-38
2021/12/16 11:43:36;;;;;;;25.20;15.10;;;;;;;3.05;88.33;97557.16;5113617;28;20848;-38
2021/12/16 11:46:06;;;;;;;27.50;12.67;;;;;;;3.04;87.84;97547.66;5113831;28;20466;-38
2021/12/16 11:48:36;;;;;;;33.37;13.07;;;;;;;3.06;87.72;97548.31;5113774;28;20430;-37
2021/12/16 11:51:08;;;;;;;29.30;14.37;;;;;;;3.07;87.24;97547.31;5113098;28;20446;-38
2021/12/16 11:53:39;;;;;;;24.67;12.00;;;;;;;3.01;87.10;97534.88;5113494;28;20433;-37
2021/12/16 11:56:10;;;;;;;20.27;12.07;;;;;;;3.04;86.98;97545.03;5113241;28;20474;-38
2021/12/16 11:58:37;;;;;;;81.93;31.17;;;;;;;3.01;86.83;97542.72;5113326;28;20430;-34
2021/12/16 12:01:16;;;;;;;36.90;16.40;;;;;;;2.92;86.33;97538.50;5113489;28;20441;-37
2021/12/16 12:03:43;;;;;;;34.53;14.20;;;;;;;2.89;86.46;97528.38;5113230;28;20517;-35
2021/12/16 12:06:24;;;;;;;24.73;10.30;;;;;;;2.97;86.39;97528.31;5113152;27;20445;-37
2021/12/16 12:08:54;;;;;;;26.40;13.13;;;;;;;2.97;86.41;97523.06;5113016;28;20813;-36
2021/12/16 12:11:24;;;;;;;34.50;15.40;;;;;;;3.00;86.21;97531.44;5113007;28;20434;-37
2021/12/16 12:13:56;;;;;;;28.07;14.50;;;;;;;2.97;85.66;97526.53;5112990;28;20952;-35
2021/12/16 12:16:28;;;;;;;24.17;12.87;;;;;;;3.00;86.16;97525.38;5112878;28;20482;-34
2021/12/16 12:18:58;;;;;;;40.30;18.77;;;;;;;2.99;86.67;97513.22;5112898;28;20426;-37
2021/12/16 12:21:35;;;;;;;58.53;26.20;;;;;;;2.99;86.12;97513.22;5112977;28;20422;-36
2021/12/16 12:24:08;;;;;;;41.20;20.00;;;;;;;2.94;85.68;97515.56;5113104;28;20793;-37
2021/12/16 12:26:41;;;;;;;50.20;23.93;;;;;;;2.95;85.61;97517.22;5112764;28;20944;-36
2021/12/16 12:29:11;;;;;;;37.43;18.77;;;;;;;2.97;86.45;97509.97;5112658;28;20481;-37
2021/12/16 12:31:42;;;;;;;26.90;14.33;;;;;;;2.93;85.71;97521.81;5112656;28;20454;-37
2021/12/16 12:34:10;;;;;;;35.93;16.20;;;;;;;2.73;85.18;97493.34;5112532;28;20924;-37
2021/12/16 12:36:38;;;;;;;59.47;23.30;;;;;;;2.91;85.58;97515.91;5112712;28;20730;-36
2021/12/16 12:39:09;;;;;;;65.67;24.33;;;;;;;2.75;85.81;97517.56;5112498;28;20448;-37
2021/12/16 12:41:37;;;;;;;32.33;17.30;;;;;;;2.73;85.08;97493.34;5112769;28;20497;-36
2021/12/16 12:44:05;;;;;;;23.73;13.40;;;;;;;2.87;85.65;97512.81;5111595;28;20800;-37
2021/12/16 12:46:34;;;;;;;19.53;11.67;;;;;;;2.86;86.44;97508.53;5112160;28;21002;-37
2021/12/16 12:49:05;;;;;;;15.97;10.43;;;;;;;2.87;86.85;97505.75;5112347;28;20445;-35
2021/12/16 12:51:36;;;;;;;23.80;13.30;;;;;;;2.90;86.63;97509.81;5112711;28;20474;-37
2021/12/16 12:54:19;;;;;;;23.07;9.63;;;;;;;2.80;85.80;97489.06;5112276;28;20433;-37
2021/12/16 12:56:47;;;;;;;23.40;11.43;;;;;;;2.95;85.91;97514.59;5111833;28;20478;-34
2021/12/16 12:59:16;;;;;;;26.00;12.10;;;;;;;2.93;86.40;97519.19;5113574;28;20449;-36
2021/12/16 13:01:47;;;;;;;19.97;8.13;;;;;;;2.93;86.57;97511.31;5113936;28;20532;-35
2021/12/16 13:04:19;;;;;;;24.50;11.67;;;;;;;2.94;86.59;97515.56;5114134;28;20829;-36
2021/12/16 13:07:03;;;;;;;29.33;13.57;;;;;;;2.91;86.34;97516.72;5114165;28;20505;-36
2021/12/16 13:09:36;;;;;;;25.83;11.87;;;;;;;2.93;87.13;97513.94;5114121;28;20429;-36
2021/12/16 13:12:21;;;;;;;24.17;12.33;;;;;;;2.95;86.85;97522.47;5114332;28;20430;-34
2021/12/16 13:14:51;;;;;;;28.80;13.93;;;;;;;2.94;87.27;97515.56;5113958;28;20517;-36
2021/12/16 13:28:40;;;;;;;29.70;12.90;;;;;;;2.94;86.13;97519.00;5079929;28;20466;-35